Bookmark and Share
Track history (hours):
 

Oceanographic research ship Le Suroit (France)

Detailed information on ship capabilities available from University of Delaware's Ocean Information Center.

Last reported at 2014-Apr-01 17:29 UTC. Time now 2014-Apr-18 10:47 UTC.
Position N 35°59' W 005°30'.
Warning: this ship's position is 16 days out of date.

Length 57 m; beam 11 m.

MMSI: 227223000.

NotesDate/timePositionNaut miles runAvg speedWind from/ knotsBaromVisibWave heightAir tempDewpointWater temp
2014-Apr-01 17:29N 35°59' W 005°30'8 8.0
2014-Apr-01 16:33N 35°58' W 005°21'5 4.8
2014-Apr-01 15:34N 35°54' W 005°18'0 0.0
2014-Apr-01 14:33N 35°54' W 005°18'0 0.0
2014-Apr-01 13:33N 35°54' W 005°18'0 0.0
2014-Apr-01 12:34N 35°54' W 005°18'0 0.0
2014-Apr-01 11:34N 35°54' W 005°18'0 0.0
2014-Apr-01 10:34N 35°54' W 005°18'0 0.0
2014-Apr-01 09:33N 35°54' W 005°18'0 0.0
2014-Apr-01 08:33N 35°54' W 005°18'1 1.1
2014-Apr-01 07:33N 35°55' W 005°19'1 0.5
2014-Apr-01 06:34N 35°55' W 005°18'1 1.5
2014-Apr-01 05:33N 35°55' W 005°16'3 2.6
2014-Apr-01 04:33N 35°56' W 005°13'231 9.6
2014-Mar-31 04:33N 37°25' W 000°48'1110.9
2014-Mar-31 03:33N 37°32' W 000°37'1010.4
2014-Mar-31 02:33N 37°40' W 000°28'1010.1
2014-Mar-31 01:33N 37°47' W 000°20'1010.0
2014-Mar-31 00:33N 37°55' W 000°12'10 9.9
2014-Mar-30 23:33N 38°02' W 000°03'1010.2
2014-Mar-30 22:33N 38°10' E 000°05'9210.1
2014-Mar-30 13:27N 39°19' E 001°23'910.1
2014-Mar-30 12:33N 39°26' E 001°31'1110.3
2014-Mar-30 11:32N 39°34' E 001°40'1310.1
2014-Mar-30 10:16N 39°43' E 001°51'710.1
2014-Mar-30 09:33N 39°48' E 001°58'1010.1
2014-Mar-30 08:33N 39°56' E 002°07'1010.2
2014-Mar-30 07:33N 40°03' E 002°16'1010.5
2014-Mar-30 06:34N 40°11' E 002°25'1111.3
2014-Mar-30 05:33N 40°19' E 002°35'1111.2
2014-Mar-30 04:33N 40°27' E 002°45'1111.0
2014-Mar-30 03:33N 40°35' E 002°55'1111.0
2014-Mar-30 02:33N 40°44' E 003°05'1111.0
2014-Mar-30 01:33N 40°52' E 003°15'1111.4
2014-Mar-30 00:33N 41°00' E 003°25'1110.5
2014-Mar-29 23:33N 41°08' E 003°34'1111.1
2014-Mar-29 22:33N 41°16' E 003°44'1110.8
2014-Mar-29 21:33N 41°24' E 003°54'1111.0
2014-Mar-29 20:33N 41°32' E 004°04'1110.7
2014-Mar-29 19:34N 41°40' E 004°13'1111.1
2014-Mar-29 18:33N 41°48' E 004°24'1111.1
2014-Mar-29 17:33N 41°56' E 004°34'1110.8
2014-Mar-29 16:33N 42°04' E 004°44'1110.9
2014-Mar-29 15:33N 42°12' E 004°54'1010.5
2014-Mar-29 14:33N 42°20' E 005°03'1211.4
2014-Mar-29 13:32N 42°28' E 005°14'1210.9
2014-Mar-29 12:26N 42°37' E 005°25'36 2.2
2014-Mar-28 20:15N 43°06' E 005°53'  

Dump ship's entire track history

sailing weather and tide predictions

Le Suroit — FZVN — position and weather